Time;durP1;ratioP1;P1;durP2;ratioP2;P2;SDS_P1;SDS_P2;PMS_P1;PMS_P2;Temp;Humidity;BMP_temperature;BMP_pressure;BME280_temperature;BME280_humidity;BME280_pressure;Samples;Min_cycle;Max_cycle;Signal;HPM_P1;HPM_P2
2021/03/06 00:01:06;;;;;;;3.73;3.43;;;3.90;34.70;;;;;;10508257;28;20483;-69
2021/03/06 00:06:10;;;;;;;3.87;3.57;;;4.00;34.70;;;;;;10517632;28;20247;-69
2021/03/06 00:11:13;;;;;;;3.40;3.10;;;3.80;35.00;;;;;;10516197;28;20224;-70
2021/03/06 00:16:15;;;;;;;3.57;3.27;;;3.70;34.80;;;;;;10503166;28;20215;-70
2021/03/06 00:21:18;;;;;;;3.50;3.30;;;3.90;35.10;;;;;;10508600;28;20298;-70
2021/03/06 00:26:22;;;;;;;4.13;3.83;;;3.70;35.10;;;;;;10498093;28;20224;-70
2021/03/06 00:31:25;;;;;;;4.57;4.17;;;3.70;35.00;;;;;;10507453;28;20227;-70
2021/03/06 00:36:28;;;;;;;4.07;3.77;;;3.70;35.00;;;;;;10517623;28;20223;-70
2021/03/06 00:41:30;;;;;;;5.70;4.27;;;3.50;35.00;;;;;;10497380;28;20696;-70
2021/03/06 00:46:33;;;;;;;4.40;3.87;;;3.50;35.00;;;;;;10502531;28;20232;-70
2021/03/06 00:51:36;;;;;;;5.17;4.73;;;3.40;34.80;;;;;;10496310;28;20220;-70
2021/03/06 00:56:42;;;;;;;4.43;4.03;;;3.40;34.80;;;;;;10504095;28;20290;-71
2021/03/06 01:01:44;;;;;;;4.70;4.10;;;3.30;34.80;;;;;;10502345;28;20232;-70
2021/03/06 01:06:47;;;;;;;5.10;4.07;;;3.30;35.20;;;;;;10502400;27;20227;-70
2021/03/06 01:11:50;;;;;;;4.57;4.17;;;3.20;35.30;;;;;;10510717;28;20220;-71
2021/03/06 01:16:52;;;;;;;4.30;3.90;;;3.30;35.40;;;;;;10496398;28;20313;-70
2021/03/06 01:21:55;;;;;;;4.97;4.43;;;3.20;35.30;;;;;;10500178;28;20228;-70
2021/03/06 01:27:09;;;;;;;4.43;4.03;;;3.20;35.30;;;;;;10500372;28;20316;-70
2021/03/06 01:32:12;;;;;;;5.17;4.50;;;3.10;35.00;;;;;;10497457;28;20224;-70
2021/03/06 01:37:16;;;;;;;5.23;4.73;;;3.10;34.70;;;;;;10505429;28;20234;-70
2021/03/06 01:42:18;;;;;;;4.07;3.67;;;3.00;34.60;;;;;;10494776;28;20242;-70
2021/03/06 01:47:20;;;;;;;4.73;4.23;;;2.90;35.30;;;;;;10510608;28;20231;-70
2021/03/06 01:52:24;;;;;;;5.17;4.60;;;2.80;35.00;;;;;;10506291;28;20274;-70
2021/03/06 01:57:28;;;;;;;3.93;3.63;;;2.70;34.90;;;;;;10495901;28;20236;-70
2021/03/06 02:02:31;;;;;;;4.27;3.33;;;2.80;35.00;;;;;;10506561;28;20228;-70
2021/03/06 02:07:34;;;;;;;4.40;4.00;;;2.70;34.90;;;;;;10495673;28;20254;-70
2021/03/06 02:12:46;;;;;;;4.40;4.00;;;2.60;34.80;;;;;;10498865;28;20228;-70
2021/03/06 02:17:54;;;;;;;4.10;3.80;;;2.60;34.60;;;;;;10512459;28;20228;-70
2021/03/06 02:23:42;;;;;;;3.60;3.27;;;2.50;34.80;;;;;;10491977;28;20228;-70
2021/03/06 02:28:50;;;;;;;4.40;4.00;;;2.40;34.60;;;;;;10508717;28;20311;-70
2021/03/06 02:34:00;;;;;;;5.33;3.63;;;2.40;34.60;;;;;;10499322;28;20595;-70
2021/03/06 02:39:06;;;;;;;4.03;3.40;;;2.40;34.70;;;;;;10511862;28;20738;-70
2021/03/06 02:44:10;;;;;;;3.30;3.03;;;2.40;34.60;;;;;;10496257;28;20228;-71
2021/03/06 02:49:13;;;;;;;3.37;3.10;;;2.30;34.60;;;;;;10517375;28;20231;-70
2021/03/06 02:54:17;;;;;;;4.17;3.37;;;2.30;34.60;;;;;;10528235;28;20219;-70
2021/03/06 02:59:41;;;;;;;4.10;3.70;;;2.20;34.50;;;;;;10509211;28;20227;-70
2021/03/06 03:04:58;;;;;;;3.70;3.33;;;2.20;34.50;;;;;;10527467;28;20315;-70
2021/03/06 03:10:04;;;;;;;3.53;3.23;;;2.20;34.50;;;;;;10504966;28;20238;-70
2021/03/06 03:15:12;;;;;;;3.23;3.03;;;2.20;34.50;;;;;;10500981;28;20664;-69
2021/03/06 03:20:24;;;;;;;3.50;3.20;;;2.20;34.50;;;;;;10509377;28;20239;-69
2021/03/06 03:25:29;;;;;;;3.80;3.40;;;2.20;34.50;;;;;;10498635;28;20228;-70
2021/03/06 03:30:34;;;;;;;3.70;3.40;;;2.10;34.40;;;;;;10512749;28;20281;-70
2021/03/06 03:35:38;;;;;;;3.47;3.17;;;2.10;34.40;;;;;;10520558;28;20231;-69
2021/03/06 03:40:41;;;;;;;3.70;3.40;;;2.10;34.40;;;;;;10509867;28;20228;-69
2021/03/06 03:45:43;;;;;;;3.03;2.83;;;2.20;34.50;;;;;;10516468;28;20718;-70
2021/03/06 03:50:47;;;;;;;3.60;3.30;;;2.10;34.40;;;;;;10523122;28;20248;-70
2021/03/06 03:55:50;;;;;;;3.97;3.40;;;2.00;34.30;;;;;;10518273;28;20223;-70
2021/03/06 04:00:56;;;;;;;3.87;3.20;;;2.00;34.40;;;;;;10512854;28;20758;-72
2021/03/06 04:06:02;;;;;;;3.60;3.30;;;2.10;34.40;;;;;;10516469;28;20237;-72
2021/03/06 04:11:04;;;;;;;3.43;3.03;;;2.00;34.30;;;;;;10504075;28;20232;-72
2021/03/06 04:16:07;;;;;;;3.60;3.30;;;1.90;34.30;;;;;;10511818;28;20220;-70
2021/03/06 04:21:11;;;;;;;4.13;3.40;;;1.90;34.30;;;;;;10508257;28;20282;-70
2021/03/06 04:26:13;;;;;;;3.40;3.10;;;1.80;34.10;;;;;;10510423;28;20243;-72
2021/03/06 04:31:15;;;;;;;3.87;3.47;;;1.80;34.20;;;;;;10511990;28;20310;-72
2021/03/06 04:36:18;;;;;;;4.23;3.70;;;1.80;34.30;;;;;;10509793;28;20228;-72
2021/03/06 04:41:20;;;;;;;3.87;3.10;;;1.70;34.40;;;;;;10497436;28;23525;-69
2021/03/06 04:46:23;;;;;;;3.30;3.00;;;1.80;34.40;;;;;;10506720;28;20238;-69
2021/03/06 04:51:26;;;;;;;4.00;3.13;;;1.70;34.40;;;;;;10512865;28;20219;-69
2021/03/06 04:56:28;;;;;;;4.17;2.97;;;1.70;34.40;;;;;;10505284;28;20551;-69
2021/03/06 05:01:30;;;;;;;3.67;3.30;;;1.60;34.30;;;;;;10507276;28;20306;-69
2021/03/06 05:06:34;;;;;;;3.40;3.10;;;1.60;34.30;;;;;;10496518;28;20228;-69
2021/03/06 05:11:36;;;;;;;4.07;2.87;;;1.60;34.40;;;;;;10513615;28;20224;-69
2021/03/06 05:16:38;;;;;;;3.10;2.80;;;1.60;34.20;;;;;;10495819;28;20220;-72
2021/03/06 05:21:41;;;;;;;3.20;2.90;;;1.60;34.20;;;;;;10500774;28;20220;-72
2021/03/06 05:26:43;;;;;;;3.27;3.07;;;1.50;34.20;;;;;;10500122;28;20590;-71
2021/03/06 05:31:45;;;;;;;4.17;3.43;;;1.50;34.40;;;;;;10503911;27;20217;-71
2021/03/06 05:36:50;;;;;;;3.43;3.13;;;1.40;34.40;;;;;;10515959;28;20305;-70
2021/03/06 05:41:53;;;;;;;2.70;2.50;;;1.40;34.40;;;;;;10495486;28;20224;-70
2021/03/06 05:46:56;;;;;;;3.40;3.10;;;1.40;34.50;;;;;;10503883;28;20220;-70
2021/03/06 05:52:01;;;;;;;3.23;3.03;;;1.50;34.70;;;;;;10507597;28;20232;-70
2021/03/06 05:57:06;;;;;;;3.33;3.03;;;1.50;34.70;;;;;;10495338;28;20231;-71
2021/03/06 06:02:08;;;;;;;3.50;3.10;;;1.40;34.60;;;;;;10499745;28;20319;-70
2021/03/06 06:07:12;;;;;;;3.53;3.23;;;1.30;34.40;;;;;;10497404;28;20278;-70
2021/03/06 06:12:14;;;;;;;3.57;3.07;;;1.40;34.50;;;;;;10501038;28;20228;-71
2021/03/06 06:17:16;;;;;;;3.27;2.97;;;1.30;34.40;;;;;;10509322;28;20227;-72
2021/03/06 06:22:21;;;;;;;3.17;2.87;;;1.30;34.40;;;;;;10500318;28;20228;-72
2021/03/06 06:27:26;;;;;;;3.37;3.07;;;1.30;34.60;;;;;;10493714;28;20232;-72
2021/03/06 06:32:40;;;;;;;3.33;3.00;;;1.30;34.70;;;;;;10505065;28;20220;-72
2021/03/06 06:37:55;;;;;;;3.10;2.80;;;1.30;34.80;;;;;;10507201;28;20243;-72
2021/03/06 06:42:58;;;;;;;3.63;3.33;;;1.30;35.00;;;;;;10493239;28;20234;-72
2021/03/06 06:48:09;;;;;;;3.30;3.00;;;1.30;34.90;;;;;;10500367;28;20716;-72
2021/03/06 06:53:25;;;;;;;4.20;3.07;;;1.30;35.00;;;;;;10491335;28;20222;-71
2021/03/06 06:58:34;;;;;;;3.30;3.10;;;1.40;35.20;;;;;;10500581;28;20624;-72
2021/03/06 07:03:36;;;;;;;3.80;3.17;;;1.40;35.30;;;;;;10498587;28;20311;-72
2021/03/06 07:08:40;;;;;;;3.63;3.33;;;1.60;35.30;;;;;;10493136;28;20499;-72
2021/03/06 07:13:42;;;;;;;3.67;2.83;;;1.50;35.40;;;;;;10502973;28;20228;-72
2021/03/06 07:18:44;;;;;;;3.57;3.27;;;1.50;35.30;;;;;;10499204;28;20228;-72
2021/03/06 07:23:48;;;;;;;3.43;3.00;;;1.60;35.50;;;;;;10496677;28;20227;-72
2021/03/06 07:28:51;;;;;;;3.50;3.20;;;1.70;35.70;;;;;;10512135;28;20334;-72
2021/03/06 07:33:54;;;;;;;2.93;2.73;;;1.80;35.80;;;;;;10519598;28;20713;-72
2021/03/06 07:39:01;;;;;;;3.27;2.93;;;1.80;36.00;;;;;;10517937;28;20315;-72
2021/03/06 07:44:05;;;;;;;3.17;2.97;;;2.10;36.50;;;;;;10502169;28;20693;-72
2021/03/06 07:49:13;;;;;;;3.20;2.90;;;2.00;36.20;;;;;;10505032;27;20243;-72
2021/03/06 07:54:17;;;;;;;2.97;2.67;;;2.30;36.60;;;;;;10502482;28;20574;-71
2021/03/06 07:59:47;;;;;;;2.77;2.57;;;2.30;36.20;;;;;;10512356;28;20236;-70
2021/03/06 08:04:49;;;;;;;4.40;2.80;;;2.50;36.30;;;;;;10506712;28;20220;-70
2021/03/06 08:10:02;;;;;;;3.00;2.70;;;2.70;36.20;;;;;;10511993;28;20239;-70
2021/03/06 08:15:27;;;;;;;3.67;2.97;;;3.00;36.10;;;;;;10506817;28;20659;-70
2021/03/06 08:20:31;;;;;;;3.77;3.00;;;3.30;36.30;;;;;;10510270;28;20312;-70
2021/03/06 08:25:34;;;;;;;3.10;2.73;;;3.50;36.40;;;;;;10511802;28;20234;-69
2021/03/06 08:30:36;;;;;;;3.30;2.93;;;3.80;36.30;;;;;;10506761;28;20278;-69
2021/03/06 08:35:39;;;;;;;3.00;2.80;;;4.10;36.20;;;;;;10512326;28;20224;-69
2021/03/06 08:40:43;;;;;;;3.47;3.17;;;4.40;36.30;;;;;;10504873;28;20223;-69
2021/03/06 08:45:45;;;;;;;3.40;3.10;;;4.70;36.50;;;;;;10506169;28;20286;-69
2021/03/06 08:50:48;;;;;;;3.23;2.93;;;5.00;36.40;;;;;;10499266;28;20286;-69
2021/03/06 08:55:55;;;;;;;5.03;3.13;;;5.20;36.60;;;;;;10504460;28;20239;-69
2021/03/06 09:00:59;;;;;;;4.53;3.17;;;5.40;35.20;;;;;;10504962;28;20321;-68
2021/03/06 09:06:02;;;;;;;4.13;2.90;;;5.70;35.30;;;;;;10512110;28;20224;-69
2021/03/06 09:11:05;;;;;;;3.10;2.90;;;5.80;35.40;;;;;;10509714;28;20708;-69
2021/03/06 09:16:11;;;;;;;2.80;2.60;;;6.10;34.90;;;;;;10504405;28;20224;-69
2021/03/06 09:21:19;;;;;;;2.73;2.53;;;6.30;35.00;;;;;;10501497;28;20236;-69
2021/03/06 09:26:25;;;;;;;3.60;2.50;;;6.50;34.50;;;;;;10491619;28;20616;-68
2021/03/06 09:31:31;;;;;;;2.43;2.23;;;6.60;33.40;;;;;;10499343;28;20352;-71
2021/03/06 09:36:33;;;;;;;2.50;2.30;;;6.80;33.10;;;;;;10505645;28;20231;-70
2021/03/06 09:41:38;;;;;;;2.67;2.47;;;6.90;32.70;;;;;;10498143;28;20246;-70
2021/03/06 09:46:40;;;;;;;2.73;2.30;;;7.00;32.50;;;;;;10506381;28;20248;-70
2021/03/06 09:51:44;;;;;;;2.70;2.50;;;7.00;32.40;;;;;;10494357;28;20507;-70
2021/03/06 09:56:50;;;;;;;2.77;2.57;;;7.10;32.30;;;;;;10501296;28;20619;-71
2021/03/06 10:01:52;;;;;;;2.90;2.60;;;7.30;32.20;;;;;;10499171;28;20232;-70
2021/03/06 10:06:57;;;;;;;3.00;2.70;;;7.40;32.70;;;;;;10498828;28;20705;-68
2021/03/06 10:12:05;;;;;;;2.70;2.50;;;7.50;32.30;;;;;;10502510;28;20255;-68
2021/03/06 10:17:09;;;;;;;2.33;2.20;;;7.60;30.90;;;;;;10503082;28;20217;-69
2021/03/06 10:22:13;;;;;;;2.20;2.00;;;7.70;30.90;;;;;;10518891;28;20640;-69
2021/03/06 10:27:17;;;;;;;6.20;2.63;;;7.90;31.50;;;;;;10507037;28;20259;-69
2021/03/06 10:32:20;;;;;;;4.07;2.60;;;7.90;33.50;;;;;;10498128;28;20220;-74
2021/03/06 10:37:23;;;;;;;7.80;2.60;;;8.10;32.80;;;;;;10495766;28;20239;-69
2021/03/06 10:42:41;;;;;;;2.97;2.77;;;8.20;31.40;;;;;;10513642;28;20223;-69
2021/03/06 10:47:47;;;;;;;8.73;2.63;;;8.40;30.50;;;;;;10508977;28;20267;-69
2021/03/06 10:52:50;;;;;;;2.87;2.60;;;8.50;29.90;;;;;;10511681;28;20281;-69
2021/03/06 10:57:53;;;;;;;3.10;2.80;;;8.50;30.30;;;;;;10501157;28;20330;-68
2021/03/06 11:02:56;;;;;;;10.87;3.07;;;8.50;29.90;;;;;;10505588;28;20242;-69
2021/03/06 11:08:12;;;;;;;2.90;2.70;;;8.50;29.70;;;;;;10509900;28;20228;-69
2021/03/06 11:13:16;;;;;;;2.53;2.33;;;8.50;28.10;;;;;;10509714;28;20225;-69
2021/03/06 11:18:18;;;;;;;2.80;2.60;;;8.50;29.20;;;;;;10524577;28;20257;-69
2021/03/06 11:23:21;;;;;;;3.67;2.70;;;8.50;29.50;;;;;;10525160;28;20227;-69
2021/03/06 11:28:25;;;;;;;2.60;2.40;;;8.60;29.80;;;;;;10509879;28;20649;-69
2021/03/06 11:33:29;;;;;;;3.07;2.73;;;8.60;29.30;;;;;;10522378;28;20719;-69
2021/03/06 11:38:31;;;;;;;2.77;2.57;;;8.70;29.30;;;;;;10512422;28;20711;-69
2021/03/06 11:43:34;;;;;;;2.70;2.50;;;8.70;29.70;;;;;;10510640;28;20220;-69
2021/03/06 11:48:37;;;;;;;2.77;2.57;;;8.80;29.50;;;;;;10524782;28;20773;-69
2021/03/06 11:53:40;;;;;;;2.83;2.63;;;8.90;29.20;;;;;;10517773;28;20228;-69
2021/03/06 11:58:43;;;;;;;2.70;2.50;;;8.90;29.60;;;;;;10513585;28;20240;-69
2021/03/06 12:03:45;;;;;;;2.70;2.50;;;9.00;29.40;;;;;;10501071;28;20223;-69
2021/03/06 12:08:47;;;;;;;2.57;2.37;;;9.10;29.60;;;;;;10521257;28;20235;-68
2021/03/06 12:13:50;;;;;;;2.20;2.10;;;9.20;28.70;;;;;;10518631;28;20335;-69
2021/03/06 12:18:53;;;;;;;2.60;2.40;;;9.30;28.60;;;;;;10502768;28;20746;-69
2021/03/06 12:23:56;;;;;;;2.37;2.10;;;9.30;28.60;;;;;;10524752;28;20281;-69
2021/03/06 12:28:59;;;;;;;2.80;2.60;;;9.30;28.60;;;;;;10515449;28;20314;-69
2021/03/06 12:34:01;;;;;;;3.17;2.37;;;9.30;28.60;;;;;;10518916;28;20221;-70
2021/03/06 12:39:04;;;;;;;1.90;1.80;;;9.40;28.70;;;;;;10505512;28;20236;-70
2021/03/06 12:44:07;;;;;;;2.40;2.23;;;9.40;28.20;;;;;;10501766;28;20224;-70
2021/03/06 12:49:11;;;;;;;2.60;2.40;;;9.40;28.20;;;;;;10520528;28;20241;-70
2021/03/06 12:54:14;;;;;;;2.60;2.23;;;9.40;28.20;;;;;;10511085;28;20224;-70
2021/03/06 12:59:17;;;;;;;2.90;2.23;;;9.40;28.20;;;;;;10518641;28;20783;-69
2021/03/06 13:04:20;;;;;;;3.27;2.10;;;9.40;27.80;;;;;;10498187;28;20236;-70
2021/03/06 13:09:22;;;;;;;2.20;1.90;;;9.30;28.50;;;;;;10504673;28;20250;-70
2021/03/06 13:14:25;;;;;;;1.90;1.80;;;9.30;28.30;;;;;;10500545;28;20224;-69
2021/03/06 13:19:27;;;;;;;2.03;1.83;;;9.40;27.60;;;;;;10511495;28;20228;-69
2021/03/06 13:24:29;;;;;;;2.13;1.80;;;9.40;27.30;;;;;;10499767;28;20220;-70
2021/03/06 13:29:32;;;;;;;2.30;2.10;;;9.40;27.50;;;;;;10504663;28;20595;-69
2021/03/06 13:34:35;;;;;;;1.90;1.80;;;9.40;27.40;;;;;;10512252;28;20707;-74
2021/03/06 13:39:37;;;;;;;2.00;1.80;;;9.40;27.30;;;;;;10498903;28;20322;-71
2021/03/06 13:44:40;;;;;;;2.03;1.80;;;9.50;27.30;;;;;;10498001;28;20223;-71
2021/03/06 13:49:43;;;;;;;1.70;1.60;;;9.50;26.70;;;;;;10502735;28;20314;-71
2021/03/06 13:54:46;;;;;;;2.23;2.03;;;9.50;26.70;;;;;;10500545;28;20220;-71
2021/03/06 13:59:49;;;;;;;1.70;1.60;;;9.60;26.70;;;;;;10494466;28;20226;-71
2021/03/06 14:04:52;;;;;;;1.90;1.80;;;9.50;26.10;;;;;;10502887;28;20719;-70
2021/03/06 14:09:54;;;;;;;1.93;1.67;;;9.60;26.90;;;;;;10502777;28;20228;-71
2021/03/06 14:14:57;;;;;;;3.37;1.73;;;9.60;26.00;;;;;;10510447;28;20223;-70
2021/03/06 14:20:00;;;;;;;1.77;1.40;;;9.60;26.50;;;;;;10506591;28;20230;-71
2021/03/06 14:25:02;;;;;;;1.63;1.53;;;9.60;26.60;;;;;;10498746;28;20306;-71
2021/03/06 14:30:07;;;;;;;1.60;1.50;;;9.60;26.40;;;;;;10502193;28;20609;-70
2021/03/06 14:35:10;;;;;;;1.60;1.50;;;9.70;25.50;;;;;;10511077;28;20223;-71
2021/03/06 14:40:13;;;;;;;1.70;1.60;;;9.70;26.10;;;;;;10507630;28;20224;-70
2021/03/06 14:45:17;;;;;;;1.70;1.60;;;9.80;26.10;;;;;;10514642;28;20230;-71
2021/03/06 14:50:19;;;;;;;2.53;2.33;;;9.80;25.70;;;;;;10501509;28;20260;-70
2021/03/06 14:55:22;;;;;;;2.20;2.00;;;9.70;26.00;;;;;;10505322;28;20231;-70
2021/03/06 15:00:26;;;;;;;1.97;1.80;;;9.80;26.30;;;;;;10516367;28;20253;-71
2021/03/06 15:05:30;;;;;;;2.03;1.80;;;9.80;25.90;;;;;;10507566;28;20715;-70
2021/03/06 15:10:37;;;;;;;1.83;1.73;;;9.80;26.00;;;;;;10509983;28;20373;-69
2021/03/06 15:15:40;;;;;;;1.70;1.60;;;9.80;25.30;;;;;;10523038;28;20226;-69
2021/03/06 15:20:43;;;;;;;1.63;1.53;;;9.80;25.70;;;;;;10505815;28;20307;-69
2021/03/06 15:25:45;;;;;;;2.23;2.13;;;9.80;25.90;;;;;;10504571;28;20234;-69
2021/03/06 15:30:51;;;;;;;3.27;2.87;;;9.80;25.80;;;;;;10503595;28;20236;-69
2021/03/06 15:35:54;;;;;;;2.10;1.90;;;9.90;25.50;;;;;;10504993;28;20576;-69
2021/03/06 15:40:56;;;;;;;2.13;2.00;;;9.80;25.80;;;;;;10509656;28;20320;-69
2021/03/06 15:46:16;;;;;;;2.10;1.97;;;9.80;26.20;;;;;;10507754;28;20384;-69
2021/03/06 15:51:19;;;;;;;2.30;2.10;;;9.80;25.40;;;;;;10513639;28;20327;-69
2021/03/06 15:56:21;;;;;;;1.67;1.57;;;9.80;26.30;;;;;;10499974;28;20255;-69
2021/03/06 16:01:24;;;;;;;1.90;1.80;;;9.70;25.60;;;;;;10506957;28;20580;-69
2021/03/06 16:06:28;;;;;;;1.93;1.77;;;9.70;25.20;;;;;;10506516;28;20247;-69
2021/03/06 16:11:31;;;;;;;1.93;1.83;;;9.60;25.30;;;;;;10505274;28;20230;-69
2021/03/06 16:16:35;;;;;;;2.80;1.53;;;9.60;25.30;;;;;;10507445;28;20243;-68
2021/03/06 16:21:39;;;;;;;1.90;1.80;;;9.60;26.20;;;;;;10509267;28;20228;-68
2021/03/06 16:26:41;;;;;;;3.90;2.60;;;9.60;26.00;;;;;;10508770;28;20232;-69
2021/03/06 16:31:44;;;;;;;3.37;2.00;;;9.60;25.70;;;;;;10501059;28;20236;-69
2021/03/06 16:36:46;;;;;;;1.80;1.70;;;9.60;25.60;;;;;;10508799;28;20227;-69
2021/03/06 16:41:49;;;;;;;2.23;2.00;;;9.50;25.60;;;;;;10498769;28;20303;-69
2021/03/06 16:46:52;;;;;;;2.90;2.40;;;9.50;25.80;;;;;;10507641;28;20230;-70
2021/03/06 16:51:54;;;;;;;3.47;2.97;;;9.50;25.70;;;;;;10503697;28;20247;-69
2021/03/06 16:56:56;;;;;;;3.33;3.07;;;9.40;25.90;;;;;;10514761;28;20595;-69
2021/03/06 17:02:00;;;;;;;2.93;2.73;;;9.40;26.10;;;;;;10522917;28;20588;-69
2021/03/06 17:07:03;;;;;;;2.50;2.30;;;9.40;26.00;;;;;;10507310;28;20306;-69
2021/03/06 17:12:06;;;;;;;2.43;2.23;;;9.40;26.10;;;;;;10524003;28;20301;-68
2021/03/06 17:17:09;;;;;;;2.73;2.27;;;9.30;26.00;;;;;;10516657;28;20319;-69
2021/03/06 17:22:12;;;;;;;2.20;2.00;;;9.20;25.90;;;;;;10511860;28;20602;-70
2021/03/06 17:27:16;;;;;;;2.03;1.83;;;9.10;26.00;;;;;;10506667;28;20228;-70
2021/03/06 17:32:19;;;;;;;2.30;2.00;;;9.00;26.00;;;;;;10496071;28;20220;-70
2021/03/06 17:37:22;;;;;;;2.43;2.00;;;8.80;25.90;;;;;;10505949;28;20236;-68
2021/03/06 17:42:25;;;;;;;2.37;2.00;;;8.70;26.50;;;;;;10502874;28;20687;-68
2021/03/06 17:47:28;;;;;;;1.90;1.70;;;8.60;26.00;;;;;;10494034;28;20621;-68
2021/03/06 17:52:30;;;;;;;2.73;2.07;;;8.40;26.10;;;;;;10503554;28;20224;-68
2021/03/06 17:57:33;;;;;;;1.93;1.80;;;8.30;26.10;;;;;;10501096;28;21219;-69
2021/03/06 18:02:36;;;;;;;1.87;1.70;;;8.20;26.20;;;;;;10513261;28;20235;-69
2021/03/06 18:07:40;;;;;;;2.03;1.90;;;8.20;26.30;;;;;;10509910;28;20227;-70
2021/03/06 18:12:42;;;;;;;2.70;2.50;;;8.10;26.40;;;;;;10501729;28;20593;-70
2021/03/06 18:17:45;;;;;;;3.33;3.00;;;8.00;26.40;;;;;;10495153;28;20724;-70
2021/03/06 18:22:53;;;;;;;2.80;2.60;;;7.90;26.30;;;;;;10505133;28;20663;-70
2021/03/06 18:27:58;;;;;;;4.43;3.73;;;7.80;26.40;;;;;;10499562;28;20290;-70
2021/03/06 18:33:01;;;;;;;6.80;6.20;;;7.70;26.60;;;;;;10511597;28;20233;-71
2021/03/06 18:38:04;;;;;;;5.70;5.20;;;7.60;26.60;;;;;;10506517;28;20219;-71
2021/03/06 18:43:06;;;;;;;5.47;4.97;;;7.50;26.70;;;;;;10501676;28;20219;-72
2021/03/06 18:48:09;;;;;;;7.33;6.70;;;7.40;26.90;;;;;;10516468;28;20230;-71
2021/03/06 18:53:30;;;;;;;6.10;5.50;;;7.30;26.90;;;;;;10507445;28;20231;-71
2021/03/06 18:58:32;;;;;;;7.67;6.20;;;7.30;27.30;;;;;;10512575;28;20232;-72
2021/03/06 19:03:35;;;;;;;7.47;6.60;;;7.20;27.30;;;;;;10515617;28;20231;-71
2021/03/06 19:08:38;;;;;;;5.40;4.90;;;7.10;27.20;;;;;;10511486;28;20232;-71
2021/03/06 19:13:40;;;;;;;14.57;11.33;;;7.00;27.10;;;;;;10508384;28;20235;-72
2021/03/06 19:18:44;;;;;;;9.00;7.67;;;6.80;27.00;;;;;;10511445;28;20226;-70
2021/03/06 19:23:46;;;;;;;8.30;7.20;;;6.70;27.00;;;;;;10510079;28;20222;-71
2021/03/06 19:28:48;;;;;;;6.33;5.73;;;6.70;27.00;;;;;;10514798;28;20230;-71
2021/03/06 19:33:52;;;;;;;6.07;5.47;;;6.60;26.90;;;;;;10520707;28;20303;-71
2021/03/06 19:38:55;;;;;;;7.37;6.27;;;6.60;26.90;;;;;;10511531;28;20235;-72
2021/03/06 19:43:57;;;;;;;7.80;7.10;;;6.50;27.10;;;;;;10514569;28;20230;-72
2021/03/06 19:49:00;;;;;;;7.53;6.73;;;6.40;26.90;;;;;;10508215;28;20970;-73
2021/03/06 19:54:04;;;;;;;8.77;7.40;;;6.40;27.30;;;;;;10525334;28;20701;-72
2021/03/06 19:59:06;;;;;;;7.57;5.83;;;6.30;27.30;;;;;;10503327;28;20228;-72
2021/03/06 20:04:09;;;;;;;4.67;4.27;;;6.30;27.50;;;;;;10514618;28;20228;-72
2021/03/06 20:09:13;;;;;;;3.80;3.50;;;6.20;27.40;;;;;;10505795;28;20232;-71
2021/03/06 20:14:15;;;;;;;5.03;3.70;;;6.20;27.50;;;;;;10514514;28;20224;-73
2021/03/06 20:19:18;;;;;;;4.10;3.33;;;6.10;27.60;;;;;;10504136;28;20224;-72
2021/03/06 20:24:36;;;;;;;3.43;3.13;;;6.00;27.60;;;;;;10519536;28;20229;-73
2021/03/06 20:29:38;;;;;;;3.83;3.40;;;6.00;27.60;;;;;;10511781;28;20228;-73
2021/03/06 20:34:41;;;;;;;4.97;4.37;;;5.90;27.60;;;;;;10521667;28;20224;-73
2021/03/06 20:39:44;;;;;;;4.50;3.70;;;5.80;27.60;;;;;;10510335;28;20227;-73
2021/03/06 20:44:46;;;;;;;4.43;4.03;;;5.70;27.70;;;;;;10506317;28;20248;-72
2021/03/06 20:49:49;;;;;;;5.30;4.67;;;5.60;27.70;;;;;;10500542;28;20230;-72
2021/03/06 20:54:51;;;;;;;7.03;6.30;;;5.50;27.70;;;;;;10502903;28;20243;-72
2021/03/06 20:59:54;;;;;;;7.60;6.57;;;5.50;27.70;;;;;;10508633;28;20228;-72
2021/03/06 21:04:57;;;;;;;7.53;5.67;;;5.40;27.70;;;;;;10509757;28;20311;-72
2021/03/06 21:09:59;;;;;;;5.77;4.70;;;5.30;27.70;;;;;;10518201;28;20250;-72
2021/03/06 21:15:02;;;;;;;6.30;5.70;;;5.20;27.80;;;;;;10506841;28;20220;-73
2021/03/06 21:20:08;;;;;;;10.13;6.10;;;5.20;27.80;;;;;;10507364;28;20220;-72
2021/03/06 21:25:11;;;;;;;7.30;6.60;;;5.10;27.80;;;;;;10505994;28;20227;-73
2021/03/06 21:30:16;;;;;;;8.13;7.13;;;5.10;27.90;;;;;;10506884;28;20266;-72
2021/03/06 21:35:19;;;;;;;10.87;9.70;;;5.00;27.80;;;;;;10510790;28;20229;-73
2021/03/06 21:40:22;;;;;;;10.50;8.20;;;5.00;27.90;;;;;;10511598;28;20236;-72
2021/03/06 21:45:24;;;;;;;12.37;7.97;;;4.90;28.00;;;;;;10508665;28;20298;-72
2021/03/06 21:50:34;;;;;;;9.43;8.30;;;4.80;27.90;;;;;;10509484;28;20391;-71
2021/03/06 21:55:37;;;;;;;13.37;9.03;;;4.70;28.00;;;;;;10506532;28;20215;-71
2021/03/06 22:00:39;;;;;;;9.20;8.13;;;4.70;27.90;;;;;;10506582;28;20224;-71
2021/03/06 22:05:42;;;;;;;9.37;8.00;;;4.60;27.90;;;;;;10511172;28;20266;-71
2021/03/06 22:10:44;;;;;;;10.00;7.90;;;4.50;27.90;;;;;;10505933;28;20233;-73
2021/03/06 22:15:46;;;;;;;8.47;7.07;;;4.40;27.90;;;;;;10519401;28;20742;-73
2021/03/06 22:20:50;;;;;;;9.87;7.33;;;4.40;28.00;;;;;;10518406;28;20235;-73
2021/03/06 22:25:52;;;;;;;7.97;6.83;;;4.30;28.00;;;;;;10505690;28;20707;-72
2021/03/06 22:30:55;;;;;;;9.83;8.07;;;4.30;28.10;;;;;;10505191;28;20280;-72
2021/03/06 22:35:59;;;;;;;7.47;6.70;;;4.20;28.10;;;;;;10499438;28;20652;-73
2021/03/06 22:41:01;;;;;;;8.37;5.93;;;4.20;28.20;;;;;;10508048;28;20665;-73
2021/03/06 22:46:04;;;;;;;6.93;5.70;;;4.10;28.10;;;;;;10505023;28;20311;-73
2021/03/06 22:51:08;;;;;;;6.70;6.00;;;4.00;28.10;;;;;;10505603;28;20228;-72
2021/03/06 22:56:10;;;;;;;6.77;6.03;;;4.00;28.20;;;;;;10506589;28;20314;-73
2021/03/06 23:01:12;;;;;;;7.67;6.50;;;3.90;28.20;;;;;;10500126;28;20233;-72
2021/03/06 23:06:16;;;;;;;6.67;6.00;;;3.80;28.20;;;;;;10510767;28;20223;-73
2021/03/06 23:11:18;;;;;;;8.80;7.47;;;3.80;28.30;;;;;;10517188;28;20231;-72
2021/03/06 23:16:21;;;;;;;8.00;7.20;;;3.70;28.30;;;;;;10519444;28;20219;-73
2021/03/06 23:21:25;;;;;;;8.13;7.33;;;3.60;28.20;;;;;;10516102;28;20745;-73
2021/03/06 23:26:29;;;;;;;8.30;6.97;;;3.60;28.40;;;;;;10509118;28;21381;-72
2021/03/06 23:31:32;;;;;;;7.83;6.93;;;3.60;28.40;;;;;;10512309;28;20306;-73
2021/03/06 23:36:38;;;;;;;7.00;6.30;;;3.40;28.40;;;;;;10498675;28;20710;-73
2021/03/06 23:41:40;;;;;;;8.00;6.57;;;3.40;29.00;;;;;;10517346;28;20234;-73
2021/03/06 23:46:42;;;;;;;7.70;6.17;;;3.30;28.40;;;;;;10505246;28;20227;-73
2021/03/06 23:51:45;;;;;;;11.53;7.50;;;3.30;28.50;;;;;;10502938;28;20307;-72
2021/03/06 23:56:47;;;;;;;7.70;6.93;;;3.20;28.50;;;;;;10509762;28;20217;-73
